sensor_id;sensor_type;location;lat;lon;timestamp;temperature;humidity
39401;SHT31;75540;50.000;7.360;2024-02-21T00:01:05;5.30;90.44
39401;SHT31;75540;50.000;7.360;2024-02-21T00:03:33;5.29;90.27
39401;SHT31;75540;50.000;7.360;2024-02-21T00:06:02;5.23;90.46
39401;SHT31;75540;50.000;7.360;2024-02-21T00:08:30;5.29;90.39
39401;SHT31;75540;50.000;7.360;2024-02-21T00:11:00;5.27;90.35
39401;SHT31;75540;50.000;7.360;2024-02-21T00:13:29;5.26;90.42
39401;SHT31;75540;50.000;7.360;2024-02-21T00:15:57;5.29;90.55
39401;SHT31;75540;50.000;7.360;2024-02-21T00:18:25;5.29;90.48
39401;SHT31;75540;50.000;7.360;2024-02-21T00:20:56;5.22;90.45
39401;SHT31;75540;50.000;7.360;2024-02-21T00:23:25;5.26;90.39
39401;SHT31;75540;50.000;7.360;2024-02-21T00:25:53;5.22;90.48
39401;SHT31;75540;50.000;7.360;2024-02-21T00:28:23;5.24;90.50
39401;SHT31;75540;50.000;7.360;2024-02-21T00:30:51;5.26;90.44
39401;SHT31;75540;50.000;7.360;2024-02-21T00:33:21;5.27;90.50
39401;SHT31;75540;50.000;7.360;2024-02-21T00:35:50;5.29;90.45
39401;SHT31;75540;50.000;7.360;2024-02-21T00:38:18;5.29;90.45
39401;SHT31;75540;50.000;7.360;2024-02-21T00:40:46;5.30;90.41
39401;SHT31;75540;50.000;7.360;2024-02-21T00:43:15;5.29;90.30
39401;SHT31;75540;50.000;7.360;2024-02-21T00:45:45;5.27;90.35
39401;SHT31;75540;50.000;7.360;2024-02-21T00:48:13;5.24;90.37
39401;SHT31;75540;50.000;7.360;2024-02-21T00:50:41;5.29;90.37
39401;SHT31;75540;50.000;7.360;2024-02-21T00:53:10;5.23;90.37
39401;SHT31;75540;50.000;7.360;2024-02-21T00:55:38;5.27;90.40
39401;SHT31;75540;50.000;7.360;2024-02-21T00:58:07;5.23;90.43
39401;SHT31;75540;50.000;7.360;2024-02-21T01:00:35;5.29;90.50
39401;SHT31;75540;50.000;7.360;2024-02-21T01:03:05;5.26;90.36
39401;SHT31;75540;50.000;7.360;2024-02-21T01:05:33;5.27;90.36
39401;SHT31;75540;50.000;7.360;2024-02-21T01:08:02;5.22;90.55
39401;SHT31;75540;50.000;7.360;2024-02-21T01:10:31;5.22;90.64
39401;SHT31;75540;50.000;7.360;2024-02-21T01:12:59;5.26;90.70
39401;SHT31;75540;50.000;7.360;2024-02-21T01:15:27;5.26;90.80
39401;SHT31;75540;50.000;7.360;2024-02-21T01:17:56;5.24;90.69
39401;SHT31;75540;50.000;7.360;2024-02-21T01:20:26;5.31;90.73
39401;SHT31;75540;50.000;7.360;2024-02-21T01:22:54;5.30;90.81
39401;SHT31;75540;50.000;7.360;2024-02-21T01:25:23;5.26;90.93
39401;SHT31;75540;50.000;7.360;2024-02-21T01:27:51;5.23;91.12
39401;SHT31;75540;50.000;7.360;2024-02-21T01:30:19;5.30;91.11
39401;SHT31;75540;50.000;7.360;2024-02-21T01:32:48;5.30;91.02
39401;SHT31;75540;50.000;7.360;2024-02-21T01:35:16;5.34;90.91
39401;SHT31;75540;50.000;7.360;2024-02-21T01:37:46;5.33;90.77
39401;SHT31;75540;50.000;7.360;2024-02-21T01:40:16;5.38;90.75
39401;SHT31;75540;50.000;7.360;2024-02-21T01:42:44;5.36;90.62
39401;SHT31;75540;50.000;7.360;2024-02-21T01:45:15;5.31;90.44
39401;SHT31;75540;50.000;7.360;2024-02-21T01:47:45;5.33;90.56
39401;SHT31;75540;50.000;7.360;2024-02-21T01:50:14;5.34;90.52
39401;SHT31;75540;50.000;7.360;2024-02-21T01:52:47;5.31;90.59
39401;SHT31;75540;50.000;7.360;2024-02-21T01:55:17;5.27;90.61
39401;SHT31;75540;50.000;7.360;2024-02-21T01:57:46;5.34;90.57
39401;SHT31;75540;50.000;7.360;2024-02-21T02:00:15;5.34;90.45
39401;SHT31;75540;50.000;7.360;2024-02-21T02:02:44;5.36;90.40
39401;SHT31;75540;50.000;7.360;2024-02-21T02:05:15;5.36;90.29
39401;SHT31;75540;50.000;7.360;2024-02-21T02:07:44;5.36;90.32
39401;SHT31;75540;50.000;7.360;2024-02-21T02:10:14;5.38;90.27
39401;SHT31;75540;50.000;7.360;2024-02-21T02:12:42;5.40;90.09
39401;SHT31;75540;50.000;7.360;2024-02-21T02:15:11;5.37;90.16
39401;SHT31;75540;50.000;7.360;2024-02-21T02:17:39;5.37;90.00
39401;SHT31;75540;50.000;7.360;2024-02-21T02:20:08;5.37;89.80
39401;SHT31;75540;50.000;7.360;2024-02-21T02:22:39;5.41;89.48
39401;SHT31;75540;50.000;7.360;2024-02-21T02:25:10;5.41;89.27
39401;SHT31;75540;50.000;7.360;2024-02-21T02:27:42;5.34;88.97
39401;SHT31;75540;50.000;7.360;2024-02-21T02:30:12;5.41;89.02
39401;SHT31;75540;50.000;7.360;2024-02-21T02:32:44;5.40;89.26
39401;SHT31;75540;50.000;7.360;2024-02-21T02:35:13;5.36;89.36
39401;SHT31;75540;50.000;7.360;2024-02-21T02:37:48;5.38;89.36
39401;SHT31;75540;50.000;7.360;2024-02-21T02:40:18;5.37;89.28
39401;SHT31;75540;50.000;7.360;2024-02-21T02:42:46;5.37;89.07
39401;SHT31;75540;50.000;7.360;2024-02-21T02:45:16;5.38;88.97
39401;SHT31;75540;50.000;7.360;2024-02-21T02:47:44;5.31;88.98
39401;SHT31;75540;50.000;7.360;2024-02-21T02:50:14;5.31;88.71
39401;SHT31;75540;50.000;7.360;2024-02-21T02:52:42;5.26;88.53
39401;SHT31;75540;50.000;7.360;2024-02-21T02:55:11;5.29;88.49
39401;SHT31;75540;50.000;7.360;2024-02-21T02:57:41;5.26;88.65
39401;SHT31;75540;50.000;7.360;2024-02-21T03:00:11;5.30;88.80
39401;SHT31;75540;50.000;7.360;2024-02-21T03:02:41;5.24;88.83
39401;SHT31;75540;50.000;7.360;2024-02-21T03:05:13;5.26;88.97
39401;SHT31;75540;50.000;7.360;2024-02-21T03:07:44;5.24;88.98
39401;SHT31;75540;50.000;7.360;2024-02-21T03:10:13;5.26;88.97
39401;SHT31;75540;50.000;7.360;2024-02-21T03:12:46;5.27;89.12
39401;SHT31;75540;50.000;7.360;2024-02-21T03:15:14;5.24;88.99
39401;SHT31;75540;50.000;7.360;2024-02-21T03:17:42;5.24;89.07
39401;SHT31;75540;50.000;7.360;2024-02-21T03:20:11;5.24;89.01
39401;SHT31;75540;50.000;7.360;2024-02-21T03:22:41;5.22;88.88
39401;SHT31;75540;50.000;7.360;2024-02-21T03:25:09;5.17;88.88
39401;SHT31;75540;50.000;7.360;2024-02-21T03:27:38;5.16;88.83
39401;SHT31;75540;50.000;7.360;2024-02-21T03:30:09;5.09;88.83
39401;SHT31;75540;50.000;7.360;2024-02-21T03:32:37;5.03;88.71
39401;SHT31;75540;50.000;7.360;2024-02-21T03:35:06;5.00;88.72
39401;SHT31;75540;50.000;7.360;2024-02-21T03:37:35;4.97;88.73
39401;SHT31;75540;50.000;7.360;2024-02-21T03:40:07;4.87;88.90
39401;SHT31;75540;50.000;7.360;2024-02-21T03:42:36;4.89;88.78
39401;SHT31;75540;50.000;7.360;2024-02-21T03:45:06;4.85;88.98
39401;SHT31;75540;50.000;7.360;2024-02-21T03:47:35;4.83;89.16
39401;SHT31;75540;50.000;7.360;2024-02-21T03:50:05;4.83;89.08
39401;SHT31;75540;50.000;7.360;2024-02-21T03:52:34;4.77;89.03
39401;SHT31;75540;50.000;7.360;2024-02-21T03:55:02;4.76;88.98
39401;SHT31;75540;50.000;7.360;2024-02-21T03:57:31;4.75;88.98
39401;SHT31;75540;50.000;7.360;2024-02-21T03:59:59;4.76;88.89
39401;SHT31;75540;50.000;7.360;2024-02-21T04:02:33;4.75;88.94
39401;SHT31;75540;50.000;7.360;2024-02-21T04:05:03;4.76;88.99
39401;SHT31;75540;50.000;7.360;2024-02-21T04:07:32;4.79;89.05
39401;SHT31;75540;50.000;7.360;2024-02-21T04:10:00;4.72;89.14
39401;SHT31;75540;50.000;7.360;2024-02-21T04:12:29;4.75;89.08
39401;SHT31;75540;50.000;7.360;2024-02-21T04:14:57;4.73;89.15
39401;SHT31;75540;50.000;7.360;2024-02-21T04:17:25;4.71;89.26
39401;SHT31;75540;50.000;7.360;2024-02-21T04:20:03;4.72;89.18
39401;SHT31;75540;50.000;7.360;2024-02-21T04:22:33;4.73;89.16
39401;SHT31;75540;50.000;7.360;2024-02-21T04:25:01;4.71;89.08
39401;SHT31;75540;50.000;7.360;2024-02-21T04:27:30;4.71;89.13
39401;SHT31;75540;50.000;7.360;2024-02-21T04:29:58;4.68;89.16
39401;SHT31;75540;50.000;7.360;2024-02-21T04:32:27;4.66;89.03
39401;SHT31;75540;50.000;7.360;2024-02-21T04:34:56;4.71;89.06
39401;SHT31;75540;50.000;7.360;2024-02-21T04:37:26;4.68;88.89
39401;SHT31;75540;50.000;7.360;2024-02-21T04:39:54;4.72;88.93
39401;SHT31;75540;50.000;7.360;2024-02-21T04:42:22;4.66;88.82
39401;SHT31;75540;50.000;7.360;2024-02-21T04:44:51;4.62;88.79
39401;SHT31;75540;50.000;7.360;2024-02-21T04:47:19;4.59;88.77
39401;SHT31;75540;50.000;7.360;2024-02-21T04:49:48;4.55;88.71
39401;SHT31;75540;50.000;7.360;2024-02-21T04:52:16;4.54;88.80
39401;SHT31;75540;50.000;7.360;2024-02-21T04:54:46;4.51;88.88
39401;SHT31;75540;50.000;7.360;2024-02-21T04:57:14;4.48;89.13
39401;SHT31;75540;50.000;7.360;2024-02-21T04:59:44;4.42;89.23
39401;SHT31;75540;50.000;7.360;2024-02-21T05:02:14;4.41;89.34
39401;SHT31;75540;50.000;7.360;2024-02-21T05:04:42;4.38;89.52
39401;SHT31;75540;50.000;7.360;2024-02-21T05:07:11;4.37;89.66
39401;SHT31;75540;50.000;7.360;2024-02-21T05:09:42;4.32;89.74
39401;SHT31;75540;50.000;7.360;2024-02-21T05:12:12;4.31;89.82
39401;SHT31;75540;50.000;7.360;2024-02-21T05:14:40;4.28;89.77
39401;SHT31;75540;50.000;7.360;2024-02-21T05:17:08;4.25;89.90
39401;SHT31;75540;50.000;7.360;2024-02-21T05:19:37;4.24;89.75
39401;SHT31;75540;50.000;7.360;2024-02-21T05:22:06;4.24;89.77
39401;SHT31;75540;50.000;7.360;2024-02-21T05:24:34;4.24;89.67
39401;SHT31;75540;50.000;7.360;2024-02-21T05:27:03;4.24;89.74
39401;SHT31;75540;50.000;7.360;2024-02-21T05:29:33;4.21;89.78
39401;SHT31;75540;50.000;7.360;2024-02-21T05:32:02;4.21;89.76
39401;SHT31;75540;50.000;7.360;2024-02-21T05:34:30;4.17;89.72
39401;SHT31;75540;50.000;7.360;2024-02-21T05:36:59;4.20;89.55
39401;SHT31;75540;50.000;7.360;2024-02-21T05:39:27;4.20;89.50
39401;SHT31;75540;50.000;7.360;2024-02-21T05:41:56;4.15;89.51
39401;SHT31;75540;50.000;7.360;2024-02-21T05:44:25;4.17;89.45
39401;SHT31;75540;50.000;7.360;2024-02-21T05:46:55;4.22;89.41
39401;SHT31;75540;50.000;7.360;2024-02-21T05:49:24;4.30;89.07
39401;SHT31;75540;50.000;7.360;2024-02-21T05:51:52;4.32;88.83
39401;SHT31;75540;50.000;7.360;2024-02-21T05:54:21;4.27;88.80
39401;SHT31;75540;50.000;7.360;2024-02-21T05:56:49;4.30;88.79
39401;SHT31;75540;50.000;7.360;2024-02-21T05:59:19;4.25;88.87
39401;SHT31;75540;50.000;7.360;2024-02-21T06:01:56;4.17;89.03
39401;SHT31;75540;50.000;7.360;2024-02-21T06:04:25;4.17;89.17
39401;SHT31;75540;50.000;7.360;2024-02-21T06:06:53;4.17;89.34
39401;SHT31;75540;50.000;7.360;2024-02-21T06:09:22;4.12;89.45
39401;SHT31;75540;50.000;7.360;2024-02-21T06:11:50;4.12;89.54
39401;SHT31;75540;50.000;7.360;2024-02-21T06:14:19;4.14;89.67
39401;SHT31;75540;50.000;7.360;2024-02-21T06:16:48;4.15;89.71
39401;SHT31;75540;50.000;7.360;2024-02-21T06:19:18;4.15;89.68
39401;SHT31;75540;50.000;7.360;2024-02-21T06:21:46;4.21;89.68
39401;SHT31;75540;50.000;7.360;2024-02-21T06:24:14;4.21;89.74
39401;SHT31;75540;50.000;7.360;2024-02-21T06:26:43;4.21;89.82
39401;SHT31;75540;50.000;7.360;2024-02-21T06:29:11;4.18;89.84
39401;SHT31;75540;50.000;7.360;2024-02-21T06:31:40;4.14;89.96
39401;SHT31;75540;50.000;7.360;2024-02-21T06:34:09;4.18;89.94
39401;SHT31;75540;50.000;7.360;2024-02-21T06:36:39;4.10;90.09
39401;SHT31;75540;50.000;7.360;2024-02-21T06:39:07;4.07;90.11
39401;SHT31;75540;50.000;7.360;2024-02-21T06:41:35;4.08;90.08
39401;SHT31;75540;50.000;7.360;2024-02-21T06:44:04;4.08;90.00
39401;SHT31;75540;50.000;7.360;2024-02-21T06:46:32;4.11;89.96
39401;SHT31;75540;50.000;7.360;2024-02-21T06:49:02;4.17;90.06
39401;SHT31;75540;50.000;7.360;2024-02-21T06:51:31;4.20;89.84
39401;SHT31;75540;50.000;7.360;2024-02-21T06:54:03;4.15;89.88
39401;SHT31;75540;50.000;7.360;2024-02-21T06:56:31;4.18;89.79
39401;SHT31;75540;50.000;7.360;2024-02-21T06:58:59;4.24;89.68
39401;SHT31;75540;50.000;7.360;2024-02-21T07:01:28;4.22;89.72
39401;SHT31;75540;50.000;7.360;2024-02-21T07:03:57;4.24;89.68
39401;SHT31;75540;50.000;7.360;2024-02-21T07:06:25;4.27;89.72
39401;SHT31;75540;50.000;7.360;2024-02-21T07:08:53;4.27;89.67
39401;SHT31;75540;50.000;7.360;2024-02-21T07:11:23;4.34;89.63
39401;SHT31;75540;50.000;7.360;2024-02-21T07:13:52;4.42;89.47
39401;SHT31;75540;50.000;7.360;2024-02-21T07:16:21;4.45;89.39
39401;SHT31;75540;50.000;7.360;2024-02-21T07:18:49;4.52;89.41
39401;SHT31;75540;50.000;7.360;2024-02-21T07:21:17;4.51;89.33
39401;SHT31;75540;50.000;7.360;2024-02-21T07:23:46;4.55;89.17
39401;SHT31;75540;50.000;7.360;2024-02-21T07:26:14;4.56;89.11
39401;SHT31;75540;50.000;7.360;2024-02-21T07:28:44;4.58;89.09
39401;SHT31;75540;50.000;7.360;2024-02-21T07:31:13;4.68;89.12
39401;SHT31;75540;50.000;7.360;2024-02-21T07:33:41;4.66;88.94
39401;SHT31;75540;50.000;7.360;2024-02-21T07:36:10;4.71;88.87
39401;SHT31;75540;50.000;7.360;2024-02-21T07:38:39;4.72;88.53
39401;SHT31;75540;50.000;7.360;2024-02-21T07:41:08;4.68;88.88
39401;SHT31;75540;50.000;7.360;2024-02-21T07:43:36;4.66;88.74
39401;SHT31;75540;50.000;7.360;2024-02-21T07:46:06;4.69;88.70
39401;SHT31;75540;50.000;7.360;2024-02-21T07:48:35;4.61;89.19
39401;SHT31;75540;50.000;7.360;2024-02-21T07:51:03;4.65;88.99
39401;SHT31;75540;50.000;7.360;2024-02-21T07:53:32;4.65;89.03
39401;SHT31;75540;50.000;7.360;2024-02-21T07:56:00;4.72;89.14
39401;SHT31;75540;50.000;7.360;2024-02-21T07:58:29;4.77;89.08
39401;SHT31;75540;50.000;7.360;2024-02-21T08:00:57;4.83;88.87
39401;SHT31;75540;50.000;7.360;2024-02-21T08:03:27;4.75;89.26
39401;SHT31;75540;50.000;7.360;2024-02-21T08:05:55;4.71;89.31
39401;SHT31;75540;50.000;7.360;2024-02-21T08:08:24;4.69;89.29
39401;SHT31;75540;50.000;7.360;2024-02-21T08:10:53;4.73;89.28
39401;SHT31;75540;50.000;7.360;2024-02-21T08:13:21;4.85;89.07
39401;SHT31;75540;50.000;7.360;2024-02-21T08:15:50;5.01;88.81
39401;SHT31;75540;50.000;7.360;2024-02-21T08:18:19;5.10;88.28
39401;SHT31;75540;50.000;7.360;2024-02-21T08:20:52;5.16;87.93
39401;SHT31;75540;50.000;7.360;2024-02-21T08:23:23;5.13;87.45
39401;SHT31;75540;50.000;7.360;2024-02-21T08:25:51;5.17;87.43
39401;SHT31;75540;50.000;7.360;2024-02-21T08:28:20;5.23;87.29
39401;SHT31;75540;50.000;7.360;2024-02-21T08:30:48;5.29;87.10
39401;SHT31;75540;50.000;7.360;2024-02-21T08:33:17;5.24;86.56
39401;SHT31;75540;50.000;7.360;2024-02-21T08:35:46;5.19;86.20
39401;SHT31;75540;50.000;7.360;2024-02-21T08:38:15;5.31;86.59
39401;SHT31;75540;50.000;7.360;2024-02-21T08:40:44;5.33;86.27
39401;SHT31;75540;50.000;7.360;2024-02-21T08:43:12;5.40;86.36
39401;SHT31;75540;50.000;7.360;2024-02-21T08:45:41;5.43;86.31
39401;SHT31;75540;50.000;7.360;2024-02-21T08:48:09;5.34;86.15
39401;SHT31;75540;50.000;7.360;2024-02-21T08:50:38;5.43;86.17
39401;SHT31;75540;50.000;7.360;2024-02-21T08:53:07;5.51;86.23
39401;SHT31;75540;50.000;7.360;2024-02-21T08:55:37;5.44;86.00
39401;SHT31;75540;50.000;7.360;2024-02-21T08:58:05;5.51;85.88
39401;SHT31;75540;50.000;7.360;2024-02-21T09:00:34;5.62;85.83
39401;SHT31;75540;50.000;7.360;2024-02-21T09:03:03;5.77;85.64
39401;SHT31;75540;50.000;7.360;2024-02-21T09:05:32;5.74;85.39
39401;SHT31;75540;50.000;7.360;2024-02-21T09:08:02;5.77;85.26
39401;SHT31;75540;50.000;7.360;2024-02-21T09:10:31;5.75;85.08
39401;SHT31;75540;50.000;7.360;2024-02-21T09:13:01;5.85;84.80
39401;SHT31;75540;50.000;7.360;2024-02-21T09:15:31;5.72;84.63
39401;SHT31;75540;50.000;7.360;2024-02-21T09:18:01;5.75;84.60
39401;SHT31;75540;50.000;7.360;2024-02-21T09:20:29;5.75;84.57
39401;SHT31;75540;50.000;7.360;2024-02-21T09:22:58;5.78;84.41
39401;SHT31;75540;50.000;7.360;2024-02-21T09:25:27;5.91;84.48
39401;SHT31;75540;50.000;7.360;2024-02-21T09:27:55;5.91;84.24
39401;SHT31;75540;50.000;7.360;2024-02-21T09:30:26;5.90;84.31
39401;SHT31;75540;50.000;7.360;2024-02-21T09:32:55;5.92;84.05
39401;SHT31;75540;50.000;7.360;2024-02-21T09:35:25;6.01;84.07
39401;SHT31;75540;50.000;7.360;2024-02-21T09:37:55;6.03;84.19
39401;SHT31;75540;50.000;7.360;2024-02-21T09:40:23;6.11;83.88
39401;SHT31;75540;50.000;7.360;2024-02-21T09:43:00;6.15;83.96
39401;SHT31;75540;50.000;7.360;2024-02-21T09:45:33;6.11;83.80
39401;SHT31;75540;50.000;7.360;2024-02-21T09:51:02;6.33;83.02
39401;SHT31;75540;50.000;7.360;2024-02-21T09:53:32;6.46;83.03
39401;SHT31;75540;50.000;7.360;2024-02-21T09:56:02;6.43;83.05
39401;SHT31;75540;50.000;7.360;2024-02-21T09:58:31;6.46;82.70
39401;SHT31;75540;50.000;7.360;2024-02-21T10:01:02;6.46;82.72
39401;SHT31;75540;50.000;7.360;2024-02-21T10:03:51;6.63;82.51
39401;SHT31;75540;50.000;7.360;2024-02-21T10:06:22;6.69;82.25
39401;SHT31;75540;50.000;7.360;2024-02-21T10:08:54;6.70;81.77
39401;SHT31;75540;50.000;7.360;2024-02-21T10:11:22;6.76;81.74
39401;SHT31;75540;50.000;7.360;2024-02-21T10:13:51;6.69;81.86
39401;SHT31;75540;50.000;7.360;2024-02-21T10:16:32;6.67;81.75
39401;SHT31;75540;50.000;7.360;2024-02-21T10:19:01;6.81;81.75
39401;SHT31;75540;50.000;7.360;2024-02-21T10:21:31;6.73;81.55
39401;SHT31;75540;50.000;7.360;2024-02-21T10:23:59;6.80;81.66
39401;SHT31;75540;50.000;7.360;2024-02-21T10:26:27;6.93;81.56
39401;SHT31;75540;50.000;7.360;2024-02-21T10:28:56;7.00;81.35
39401;SHT31;75540;50.000;7.360;2024-02-21T10:31:25;7.01;80.86
39401;SHT31;75540;50.000;7.360;2024-02-21T10:33:57;6.97;81.09
39401;SHT31;75540;50.000;7.360;2024-02-21T10:36:26;6.74;80.69
39401;SHT31;75540;50.000;7.360;2024-02-21T10:38:54;6.63;80.24
39401;SHT31;75540;50.000;7.360;2024-02-21T10:41:23;6.73;80.54
39401;SHT31;75540;50.000;7.360;2024-02-21T10:43:54;6.80;80.61
39401;SHT31;75540;50.000;7.360;2024-02-21T10:46:24;6.72;81.19
39401;SHT31;75540;50.000;7.360;2024-02-21T10:49:01;6.87;80.44
39401;SHT31;75540;50.000;7.360;2024-02-21T10:51:34;6.97;80.50
39401;SHT31;75540;50.000;7.360;2024-02-21T10:54:16;7.05;80.14
39401;SHT31;75540;50.000;7.360;2024-02-21T10:56:49;7.08;79.98
39401;SHT31;75540;50.000;7.360;2024-02-21T10:59:19;6.97;80.48
39401;SHT31;75540;50.000;7.360;2024-02-21T11:01:47;6.98;80.22
39401;SHT31;75540;50.000;7.360;2024-02-21T11:04:18;6.86;80.45
39401;SHT31;75540;50.000;7.360;2024-02-21T11:06:47;6.97;80.62
39401;SHT31;75540;50.000;7.360;2024-02-21T11:09:17;6.91;80.26
39401;SHT31;75540;50.000;7.360;2024-02-21T11:11:46;7.09;80.40
39401;SHT31;75540;50.000;7.360;2024-02-21T11:14:18;7.12;78.22
39401;SHT31;75540;50.000;7.360;2024-02-21T11:16:47;7.25;79.04
39401;SHT31;75540;50.000;7.360;2024-02-21T11:19:21;7.28;79.00
39401;SHT31;75540;50.000;7.360;2024-02-21T11:21:51;7.21;79.04
39401;SHT31;75540;50.000;7.360;2024-02-21T11:24:27;7.29;78.93
39401;SHT31;75540;50.000;7.360;2024-02-21T11:26:56;7.44;78.51
39401;SHT31;75540;50.000;7.360;2024-02-21T11:29:25;7.54;77.92
39401;SHT31;75540;50.000;7.360;2024-02-21T11:31:53;7.52;77.71
39401;SHT31;75540;50.000;7.360;2024-02-21T11:34:24;7.51;77.73
39401;SHT31;75540;50.000;7.360;2024-02-21T11:36:52;7.47;77.26
39401;SHT31;75540;50.000;7.360;2024-02-21T11:39:22;7.48;77.31
39401;SHT31;75540;50.000;7.360;2024-02-21T11:42:03;7.51;77.19
39401;SHT31;75540;50.000;7.360;2024-02-21T11:44:32;7.48;77.49
39401;SHT31;75540;50.000;7.360;2024-02-21T11:47:01;7.49;77.87
39401;SHT31;75540;50.000;7.360;2024-02-21T11:49:36;7.38;78.14
39401;SHT31;75540;50.000;7.360;2024-02-21T11:52:06;7.42;77.96
39401;SHT31;75540;50.000;7.360;2024-02-21T11:54:34;7.47;78.39
39401;SHT31;75540;50.000;7.360;2024-02-21T11:57:06;7.44;78.28
39401;SHT31;75540;50.000;7.360;2024-02-21T11:59:34;7.52;78.12
39401;SHT31;75540;50.000;7.360;2024-02-21T12:02:03;7.61;78.12
39401;SHT31;75540;50.000;7.360;2024-02-21T12:04:33;7.59;77.85
39401;SHT31;75540;50.000;7.360;2024-02-21T12:07:02;7.48;77.81
39401;SHT31;75540;50.000;7.360;2024-02-21T12:09:33;7.39;78.26
39401;SHT31;75540;50.000;7.360;2024-02-21T12:12:03;7.44;78.52
39401;SHT31;75540;50.000;7.360;2024-02-21T12:14:33;7.49;78.75
39401;SHT31;75540;50.000;7.360;2024-02-21T12:17:02;7.45;78.62
39401;SHT31;75540;50.000;7.360;2024-02-21T12:19:34;7.45;78.82
39401;SHT31;75540;50.000;7.360;2024-02-21T12:22:02;7.58;79.46
39401;SHT31;75540;50.000;7.360;2024-02-21T12:24:33;7.56;79.32
39401;SHT31;75540;50.000;7.360;2024-02-21T12:27:03;7.59;79.01
39401;SHT31;75540;50.000;7.360;2024-02-21T12:29:32;7.59;79.04
39401;SHT31;75540;50.000;7.360;2024-02-21T12:32:00;7.68;78.05
39401;SHT31;75540;50.000;7.360;2024-02-21T12:34:31;7.51;78.29
39401;SHT31;75540;50.000;7.360;2024-02-21T12:37:21;7.58;78.33
39401;SHT31;75540;50.000;7.360;2024-02-21T12:39:50;7.59;77.81
39401;SHT31;75540;50.000;7.360;2024-02-21T12:42:18;7.54;77.69
39401;SHT31;75540;50.000;7.360;2024-02-21T12:44:47;7.52;77.63
39401;SHT31;75540;50.000;7.360;2024-02-21T12:47:15;7.48;77.56
39401;SHT31;75540;50.000;7.360;2024-02-21T12:49:46;7.49;77.72
39401;SHT31;75540;50.000;7.360;2024-02-21T12:52:15;7.55;77.28
39401;SHT31;75540;50.000;7.360;2024-02-21T12:54:44;7.54;77.03
39401;SHT31;75540;50.000;7.360;2024-02-21T12:57:13;7.58;76.27
39401;SHT31;75540;50.000;7.360;2024-02-21T12:59:42;7.54;75.81
39401;SHT31;75540;50.000;7.360;2024-02-21T13:02:10;7.56;75.65
39401;SHT31;75540;50.000;7.360;2024-02-21T13:04:39;7.65;75.89
39401;SHT31;75540;50.000;7.360;2024-02-21T13:07:08;7.58;74.41
39401;SHT31;75540;50.000;7.360;2024-02-21T13:09:36;7.52;74.52
39401;SHT31;75540;50.000;7.360;2024-02-21T13:12:07;7.63;74.31
39401;SHT31;75540;50.000;7.360;2024-02-21T13:14:36;7.61;74.13
39401;SHT31;75540;50.000;7.360;2024-02-21T13:17:06;7.81;74.30
39401;SHT31;75540;50.000;7.360;2024-02-21T13:19:34;7.92;74.03
39401;SHT31;75540;50.000;7.360;2024-02-21T13:22:03;7.89;73.12
39401;SHT31;75540;50.000;7.360;2024-02-21T13:24:31;7.96;72.18
39401;SHT31;75540;50.000;7.360;2024-02-21T13:27:00;7.93;72.73
39401;SHT31;75540;50.000;7.360;2024-02-21T13:29:30;7.86;71.80
39401;SHT31;75540;50.000;7.360;2024-02-21T13:31:58;7.85;72.24
39401;SHT31;75540;50.000;7.360;2024-02-21T13:34:27;7.87;71.83
39401;SHT31;75540;50.000;7.360;2024-02-21T13:36:56;7.96;71.45
39401;SHT31;75540;50.000;7.360;2024-02-21T13:39:24;7.96;70.84
39401;SHT31;75540;50.000;7.360;2024-02-21T13:41:52;7.87;69.73
39401;SHT31;75540;50.000;7.360;2024-02-21T13:44:21;7.81;69.74
39401;SHT31;75540;50.000;7.360;2024-02-21T13:46:51;7.85;69.58
39401;SHT31;75540;50.000;7.360;2024-02-21T13:49:19;7.79;68.14
39401;SHT31;75540;50.000;7.360;2024-02-21T13:51:48;7.83;68.85
39401;SHT31;75540;50.000;7.360;2024-02-21T13:54:16;7.87;69.04
39401;SHT31;75540;50.000;7.360;2024-02-21T13:56:46;7.94;68.41
39401;SHT31;75540;50.000;7.360;2024-02-21T13:59:16;8.03;69.09
39401;SHT31;75540;50.000;7.360;2024-02-21T14:01:45;8.10;68.38
39401;SHT31;75540;50.000;7.360;2024-02-21T14:04:15;8.19;67.46
39401;SHT31;75540;50.000;7.360;2024-02-21T14:06:43;8.09;67.19
39401;SHT31;75540;50.000;7.360;2024-02-21T14:09:11;8.10;68.76
39401;SHT31;75540;50.000;7.360;2024-02-21T14:11:40;8.12;69.98
39401;SHT31;75540;50.000;7.360;2024-02-21T14:14:09;8.06;74.04
39401;SHT31;75540;50.000;7.360;2024-02-21T14:16:37;8.19;75.17
39401;SHT31;75540;50.000;7.360;2024-02-21T14:19:06;8.13;75.64
39401;SHT31;75540;50.000;7.360;2024-02-21T14:21:37;8.03;75.39
39401;SHT31;75540;50.000;7.360;2024-02-21T14:24:05;7.90;76.11
39401;SHT31;75540;50.000;7.360;2024-02-21T14:26:34;7.87;76.22
39401;SHT31;75540;50.000;7.360;2024-02-21T14:29:04;7.81;76.45
39401;SHT31;75540;50.000;7.360;2024-02-21T14:31:32;7.83;76.67
39401;SHT31;75540;50.000;7.360;2024-02-21T14:34:01;7.81;77.38
39401;SHT31;75540;50.000;7.360;2024-02-21T14:36:30;7.71;76.10
39401;SHT31;75540;50.000;7.360;2024-02-21T14:39:01;7.65;75.99
39401;SHT31;75540;50.000;7.360;2024-02-21T14:41:30;7.63;75.94
39401;SHT31;75540;50.000;7.360;2024-02-21T14:43:58;7.56;75.83
39401;SHT31;75540;50.000;7.360;2024-02-21T14:46:30;7.52;75.83
39401;SHT31;75540;50.000;7.360;2024-02-21T14:48:59;7.49;76.14
39401;SHT31;75540;50.000;7.360;2024-02-21T14:51:28;7.49;76.29
39401;SHT31;75540;50.000;7.360;2024-02-21T14:53:57;7.45;76.52
39401;SHT31;75540;50.000;7.360;2024-02-21T14:56:27;7.36;76.44
39401;SHT31;75540;50.000;7.360;2024-02-21T14:58:55;7.32;76.62
39401;SHT31;75540;50.000;7.360;2024-02-21T15:01:37;7.34;77.20
39401;SHT31;75540;50.000;7.360;2024-02-21T15:04:06;7.27;77.56
39401;SHT31;75540;50.000;7.360;2024-02-21T15:06:35;7.27;77.58
39401;SHT31;75540;50.000;7.360;2024-02-21T15:09:04;7.21;77.42
39401;SHT31;75540;50.000;7.360;2024-02-21T15:11:36;7.12;77.39
39401;SHT31;75540;50.000;7.360;2024-02-21T15:14:04;7.15;77.55
39401;SHT31;75540;50.000;7.360;2024-02-21T15:16:33;7.15;77.87
39401;SHT31;75540;50.000;7.360;2024-02-21T15:19:02;7.17;77.43
39401;SHT31;75540;50.000;7.360;2024-02-21T15:21:30;7.11;76.93
39401;SHT31;75540;50.000;7.360;2024-02-21T15:23:59;7.14;77.64
39401;SHT31;75540;50.000;7.360;2024-02-21T15:26:29;7.11;77.23
39401;SHT31;75540;50.000;7.360;2024-02-21T15:28:59;7.07;76.80
39401;SHT31;75540;50.000;7.360;2024-02-21T15:31:27;7.03;76.88
39401;SHT31;75540;50.000;7.360;2024-02-21T15:33:56;7.04;77.07
39401;SHT31;75540;50.000;7.360;2024-02-21T15:36:25;6.97;77.07
39401;SHT31;75540;50.000;7.360;2024-02-21T15:38:55;6.94;76.76
39401;SHT31;75540;50.000;7.360;2024-02-21T15:41:26;6.91;77.14
39401;SHT31;75540;50.000;7.360;2024-02-21T15:43:54;6.87;77.33
39401;SHT31;75540;50.000;7.360;2024-02-21T15:46:27;6.96;77.12
39401;SHT31;75540;50.000;7.360;2024-02-21T15:48:55;6.96;76.73
39401;SHT31;75540;50.000;7.360;2024-02-21T15:51:24;6.94;76.66
39401;SHT31;75540;50.000;7.360;2024-02-21T15:53:52;6.91;76.04
39401;SHT31;75540;50.000;7.360;2024-02-21T15:56:21;6.91;76.75
39401;SHT31;75540;50.000;7.360;2024-02-21T15:58:50;6.84;77.07
39401;SHT31;75540;50.000;7.360;2024-02-21T16:01:18;6.93;76.88